Malatya/Erhac, Turkey
Current Conditions -  °F | °C
As of 12:50 PM on Thursday 23 Oct 2014 (Local Time) from LTAT Reporting Station
Broken Clouds Broken Clouds  
Wind Chill: 17°   Ceiling: 10000
Heat Index: 17°   Visibility: 6mi
Dew Point:   Wind: 7mph
Humidity: 59%   Direction: 50°NE
Pressure: 30.12"   Gusts: NA
Location:  38.43°N, 38.08°E
Report Text: LTAT 230950Z 05006KT 010V090 9999 SCT040 BKN100 17/09 Q1020 NOSIG
Loading
Personal Weather Stations






























Interactive Weather Map
Tropical Storm Tracking
New forecast layout! Learn more

10-Day Weather Forecast

Advertisements
Track Severe Weather on mobile